This is the latest recevied weather packets stored in our database for station/object VK2HN. If no packets are shown the sender has not sent any weather packets the latest 1 day(s).
| Time | Temp. | Humidity | Pressure | Rain* | Wind** | Luminosity | Snow |
|---|---|---|---|---|---|---|---|
| 1778071539 | 12.78° C | 97% | 1015.8 hPa | 0 mm | - | - | - |
| 1778071239 | 12.78° C | 97% | 1015.9 hPa | 0 mm | - | - | - |
| 1778070639 | 12.78° C | 97% | 1016.2 hPa | 0 mm | - | - | - |
| 1778070039 | 13.33° C | 97% | 1016.3 hPa | 0 mm | - | - | - |
| 1778069739 | 13.33° C | 97% | 1016.4 hPa | 0 mm | - | - | - |
| 1778069439 | 12.78° C | 97% | 1016.4 hPa | 0 mm | - | - | - |
| 1778069139 | 12.78° C | 97% | 1016.4 hPa | 0 mm | - | - | - |
| 1778068839 | 12.78° C | 97% | 1016.4 hPa | 0 mm | - | - | - |
| 1778068539 | 13.33° C | 96% | 1016.5 hPa | 0 mm | - | - | - |
| 1778068239 | 13.33° C | 97% | 1016.6 hPa | 0 mm | - | - | - |
| 1778067339 | 13.33° C | 97% | 1016.6 hPa | 0 mm | - | - | - |
| 1778066139 | 12.78° C | 96% | 1016.7 hPa | 0 mm | - | - | - |
| 1778065539 | 12.78° C | 96% | 1016.7 hPa | 0 mm | - | - | - |
| 1778064939 | 12.78° C | 95% | 1016.7 hPa | 0 mm | - | - | - |
| 1778059540 | 13.89° C | 93% | 1016.5 hPa | 0 mm | - | - | - |
| 1778058939 | 13.89° C | 92% | 1016.6 hPa | 0 mm | - | - | - |
| 1778056839 | 14.44° C | 90% | 1016.6 hPa | 0 mm | - | - | - |
| 1778043940 | 22.22° C | 61% | 1016.8 hPa | 0 mm | - | - | - |
| 1778043640 | 22.78° C | 61% | 1017 hPa | 0 mm | - | - | - |
| 1778043340 | 22.78° C | 62% | 1017.1 hPa | 0 mm | - | - | - |
| 1778043040 | 22.78° C | 59% | 1017.1 hPa | 0 mm | - | - | - |
| 1778042740 | 23.33° C | 58% | 1017.3 hPa | 0 mm | - | - | - |
| 1778042440 | 23.89° C | 62% | 1017.2 hPa | 0 mm | - | - | - |
| 1778042140 | 23.89° C | 59% | 1017.3 hPa | 0 mm | - | - | - |
| 1778041840 | 23.89° C | 60% | 1017.4 hPa | 0 mm | - | - | - |
* Rain latest hour (hover to see other rain measurements)
** Current wind speed in m/s (hover to see current wind gust speed)